createdAt,value
2019-01-18T00:00:21.984Z,0
2019-01-18T00:01:32.107Z,0
2019-01-18T00:02:42.220Z,0
2019-01-18T00:03:52.326Z,0
2019-01-18T00:05:02.593Z,0
2019-01-18T00:06:12.709Z,0
2019-01-18T00:07:22.837Z,0
2019-01-18T00:08:32.946Z,0
2019-01-18T00:09:43.057Z,0
2019-01-18T00:10:53.191Z,0
2019-01-18T00:12:03.283Z,0
2019-01-18T00:13:13.374Z,0
2019-01-18T00:14:23.507Z,0
2019-01-18T00:15:33.244Z,0
2019-01-18T00:16:43.393Z,0
2019-01-18T00:17:53.503Z,0
2019-01-18T00:19:03.609Z,0
2019-01-18T00:20:13.723Z,0
2019-01-18T00:21:23.624Z,0
2019-01-18T00:22:33.728Z,0
2019-01-18T00:23:43.830Z,0
2019-01-18T00:24:53.927Z,0
2019-01-18T00:26:04.058Z,0
2019-01-18T00:27:14.173Z,0
2019-01-18T00:28:24.297Z,0
2019-01-18T00:29:39.331Z,0
2019-01-18T00:30:49.448Z,0
2019-01-18T00:31:59.551Z,0
2019-01-18T00:33:09.696Z,0
2019-01-18T00:34:19.795Z,0
2019-01-18T00:35:29.921Z,0
2019-01-18T00:36:40.030Z,0
2019-01-18T00:37:50.137Z,0
2019-01-18T00:39:01.216Z,0
2019-01-18T00:40:11.332Z,0
2019-01-18T00:41:21.435Z,0
2019-01-18T00:42:31.554Z,0
2019-01-18T00:43:41.651Z,0
2019-01-18T00:44:51.868Z,0
2019-01-18T00:46:01.974Z,0
2019-01-18T00:47:12.089Z,0
2019-01-18T00:48:22.201Z,0
2019-01-18T00:49:32.324Z,0
2019-01-18T00:50:42.428Z,0
2019-01-18T00:51:52.282Z,0
2019-01-18T00:53:02.416Z,0
2019-01-18T00:54:12.572Z,0
2019-01-18T00:55:22.674Z,0
2019-01-18T00:56:32.776Z,0
2019-01-18T00:57:42.876Z,0
2019-01-18T00:58:53.031Z,0
2019-01-18T01:00:03.155Z,0
2019-01-18T01:01:13.256Z,0
2019-01-18T01:02:23.365Z,0
2019-01-18T01:03:33.486Z,0
2019-01-18T01:04:43.586Z,0
2019-01-18T01:05:53.705Z,0
2019-01-18T01:07:03.815Z,0
2019-01-18T01:08:13.930Z,0
2019-01-18T01:09:24.035Z,0
2019-01-18T01:10:33.897Z,0
2019-01-18T01:11:43.759Z,0
2019-01-18T01:12:53.850Z,0
2019-01-18T01:14:03.967Z,0
2019-01-18T01:15:14.054Z,0
2019-01-18T01:16:23.911Z,0
2019-01-18T01:17:34.993Z,0
2019-01-18T01:18:45.099Z,0
2019-01-18T01:19:55.207Z,0
2019-01-18T01:21:05.328Z,0
2019-01-18T01:22:15.449Z,0
2019-01-18T01:23:25.553Z,0
2019-01-18T01:24:35.639Z,0
2019-01-18T01:25:45.748Z,0
2019-01-18T01:26:55.873Z,0
2019-01-18T01:28:05.968Z,0
2019-01-18T01:29:15.820Z,0
2019-01-18T01:30:25.937Z,0
2019-01-18T01:31:36.042Z,0
2019-01-18T01:32:46.138Z,0
2019-01-18T01:33:56.626Z,0
2019-01-18T01:35:06.736Z,0
2019-01-18T01:36:16.855Z,0
2019-01-18T01:37:26.974Z,0
2019-01-18T01:38:37.077Z,0
2019-01-18T01:39:47.179Z,0
2019-01-18T01:40:57.035Z,0
2019-01-18T01:42:07.131Z,0
2019-01-18T01:43:17.240Z,0
2019-01-18T01:44:27.343Z,0
2019-01-18T01:45:37.437Z,0
2019-01-18T01:46:47.535Z,0
2019-01-18T01:47:57.659Z,0
2019-01-18T01:49:07.761Z,0
2019-01-18T01:50:17.859Z,0
2019-01-18T01:51:27.967Z,0
2019-01-18T01:52:38.057Z,0
2019-01-18T01:53:48.155Z,0
2019-01-18T01:54:58.433Z,0
2019-01-18T01:56:08.587Z,0
2019-01-18T01:57:18.689Z,0
2019-01-18T01:58:28.792Z,0
2019-01-18T01:59:38.903Z,0
2019-01-18T02:00:48.746Z,0
2019-01-18T02:01:58.841Z,0
2019-01-18T02:03:09.132Z,0
2019-01-18T02:04:19.242Z,0
2019-01-18T02:05:29.360Z,0
2019-01-18T02:06:39.490Z,0
2019-01-18T02:07:49.349Z,0
2019-01-18T02:08:59.459Z,0
2019-01-18T02:10:09.550Z,0
2019-01-18T02:11:19.651Z,0
2019-01-18T02:12:30.743Z,0
2019-01-18T02:13:40.847Z,0
2019-01-18T02:14:50.938Z,0
2019-01-18T02:16:01.030Z,0
2019-01-18T02:17:11.168Z,0
2019-01-18T02:18:21.275Z,0
2019-01-18T02:19:31.377Z,0
2019-01-18T02:20:41.486Z,0
2019-01-18T02:21:51.594Z,0
2019-01-18T02:23:01.699Z,0
2019-01-18T02:24:11.812Z,0
2019-01-18T02:25:21.914Z,0
2019-01-18T02:26:31.780Z,0
2019-01-18T02:27:41.869Z,0
2019-01-18T02:28:51.979Z,0
2019-01-18T02:30:06.498Z,0
2019-01-18T02:31:16.601Z,0
2019-01-18T02:32:26.699Z,0
2019-01-18T02:33:36.802Z,0
2019-01-18T02:34:46.920Z,0
2019-01-18T02:35:57.029Z,0
2019-01-18T02:37:07.147Z,0
2019-01-18T02:38:17.246Z,0
2019-01-18T02:39:27.350Z,0
2019-01-18T02:40:37.457Z,0
2019-01-18T02:41:47.571Z,0
2019-01-18T02:42:57.676Z,0
2019-01-18T02:44:07.787Z,0
2019-01-18T02:45:17.930Z,0
2019-01-18T02:46:28.070Z,0
2019-01-18T02:47:38.172Z,0
2019-01-18T02:48:48.027Z,0
2019-01-18T02:49:58.152Z,0
2019-01-18T02:51:08.263Z,0
2019-01-18T02:52:18.352Z,0
2019-01-18T02:53:28.462Z,0
2019-01-18T02:54:38.570Z,0
2019-01-18T02:55:48.661Z,0
2019-01-18T02:56:58.766Z,0
2019-01-18T02:58:08.896Z,0
2019-01-18T02:59:19.008Z,0
2019-01-18T03:00:29.125Z,0
2019-01-18T03:01:39.227Z,0
2019-01-18T03:02:49.342Z,0
2019-01-18T03:03:59.477Z,0
2019-01-18T03:05:09.605Z,0
2019-01-18T03:06:19.713Z,0
2019-01-18T03:07:29.818Z,0
2019-01-18T03:08:39.932Z,0
2019-01-18T03:09:50.035Z,0
2019-01-18T03:11:00.144Z,0
2019-01-18T03:12:10.272Z,0
2019-01-18T03:13:20.133Z,0
2019-01-18T03:14:30.953Z,0
2019-01-18T03:15:41.063Z,0
2019-01-18T03:16:51.166Z,0
2019-01-18T03:18:01.260Z,0
2019-01-18T03:19:11.371Z,0
2019-01-18T03:20:21.468Z,0
2019-01-18T03:21:31.584Z,0
2019-01-18T03:22:41.703Z,0
2019-01-18T03:23:51.810Z,0
2019-01-18T03:25:01.918Z,0
2019-01-18T03:26:12.043Z,0
2019-01-18T03:27:21.269Z,0
2019-01-18T03:28:31.366Z,0
2019-01-18T03:29:41.500Z,0
2019-01-18T03:30:51.961Z,0
2019-01-18T03:32:02.124Z,0
2019-01-18T03:33:12.242Z,0
2019-01-18T03:34:22.479Z,0
2019-01-18T03:35:32.342Z,0
2019-01-18T03:36:42.178Z,0
2019-01-18T03:37:52.280Z,0
2019-01-18T03:39:02.397Z,0
2019-01-18T03:40:12.510Z,0
2019-01-18T03:41:22.602Z,0
2019-01-18T03:42:32.712Z,0
2019-01-18T03:43:42.797Z,0
2019-01-18T03:44:52.643Z,0
2019-01-18T03:46:02.737Z,0
2019-01-18T03:47:12.837Z,0
2019-01-18T03:48:22.929Z,0
2019-01-18T03:49:33.031Z,0
2019-01-18T03:50:43.122Z,0
2019-01-18T03:51:53.250Z,0
2019-01-18T03:53:03.356Z,0
2019-01-18T03:54:13.441Z,0
2019-01-18T03:55:23.547Z,0
2019-01-18T03:56:33.644Z,0
2019-01-18T03:57:43.758Z,0
2019-01-18T03:58:53.861Z,0
2019-01-18T04:00:03.963Z,0
2019-01-18T04:01:14.066Z,0
2019-01-18T04:02:24.166Z,0
2019-01-18T04:03:34.300Z,0
2019-01-18T04:04:44.411Z,0
2019-01-18T04:05:54.552Z,0
2019-01-18T04:07:04.664Z,0
2019-01-18T04:08:14.752Z,0
2019-01-18T04:09:24.867Z,0
2019-01-18T04:10:34.950Z,0
2019-01-18T04:11:45.071Z,0
2019-01-18T04:12:55.190Z,0
2019-01-18T04:14:05.303Z,0
2019-01-18T04:15:15.429Z,0
2019-01-18T04:16:25.545Z,0
2019-01-18T04:17:35.687Z,0
2019-01-18T04:18:45.793Z,0
2019-01-18T04:19:55.901Z,0
2019-01-18T04:21:06.001Z,0
2019-01-18T04:22:16.100Z,0
2019-01-18T04:23:26.212Z,0
2019-01-18T04:24:36.333Z,0
2019-01-18T04:25:46.174Z,0
2019-01-18T04:26:56.277Z,0
2019-01-18T04:28:06.382Z,0
2019-01-18T04:29:16.491Z,0
2019-01-18T04:30:33.222Z,0
2019-01-18T04:31:43.458Z,0
2019-01-18T04:32:53.581Z,0
2019-01-18T04:34:04.317Z,0
2019-01-18T04:35:14.420Z,0
2019-01-18T04:36:24.547Z,0
2019-01-18T04:37:34.646Z,0
2019-01-18T04:38:44.746Z,0
2019-01-18T04:39:55.345Z,0
2019-01-18T04:41:05.434Z,0
2019-01-18T04:42:15.393Z,0
2019-01-18T04:43:25.487Z,0
2019-01-18T04:44:35.591Z,0
2019-01-18T04:45:45.704Z,0
2019-01-18T04:46:55.814Z,0
2019-01-18T04:48:06.937Z,0
2019-01-18T04:49:17.061Z,0
2019-01-18T04:50:27.170Z,0
2019-01-18T04:51:37.292Z,0
2019-01-18T04:52:47.411Z,0
2019-01-18T04:53:56.998Z,0
2019-01-18T04:55:07.129Z,0
2019-01-18T04:56:17.254Z,0
2019-01-18T04:57:27.412Z,0
2019-01-18T04:58:37.515Z,0
2019-01-18T04:59:47.640Z,0
2019-01-18T05:00:57.742Z,0
2019-01-18T05:02:07.863Z,0
2019-01-18T05:03:17.960Z,0
2019-01-18T05:04:28.057Z,0
2019-01-18T05:05:38.172Z,0
2019-01-18T05:06:48.291Z,0
2019-01-18T05:07:58.397Z,0
2019-01-18T05:09:08.283Z,0
2019-01-18T05:10:18.405Z,0
2019-01-18T05:11:28.538Z,0
2019-01-18T05:12:38.650Z,0
2019-01-18T05:13:48.765Z,0
2019-01-18T05:14:58.887Z,0
2019-01-18T05:16:09.005Z,0
2019-01-18T05:17:19.125Z,0
2019-01-18T05:18:29.271Z,0
2019-01-18T05:19:39.360Z,0
2019-01-18T05:20:49.467Z,0
2019-01-18T05:21:59.573Z,0
2019-01-18T05:23:09.682Z,0
2019-01-18T05:24:19.782Z,0
2019-01-18T05:25:29.897Z,0
2019-01-18T05:26:39.998Z,0
2019-01-18T05:27:50.101Z,0
2019-01-18T05:29:00.208Z,0
2019-01-18T05:30:10.357Z,0
2019-01-18T05:31:20.464Z,0
2019-01-18T05:32:31.215Z,0
2019-01-18T05:33:41.355Z,0
2019-01-18T05:34:51.484Z,0
2019-01-18T05:36:01.606Z,0
2019-01-18T05:37:11.726Z,0
2019-01-18T05:38:21.823Z,0
2019-01-18T05:39:31.937Z,0
2019-01-18T05:40:42.051Z,0
2019-01-18T05:41:52.168Z,0
2019-01-18T05:43:02.288Z,0
2019-01-18T05:44:12.414Z,0
2019-01-18T05:45:22.528Z,0
2019-01-18T05:46:32.644Z,0
2019-01-18T05:47:42.759Z,0
2019-01-18T05:48:52.637Z,0
2019-01-18T05:50:02.755Z,0
2019-01-18T05:51:12.877Z,0
2019-01-18T05:52:22.984Z,0
2019-01-18T05:53:33.104Z,0
2019-01-18T05:54:42.954Z,0
2019-01-18T05:55:53.060Z,0
2019-01-18T05:57:02.832Z,0
2019-01-18T05:58:12.961Z,0
2019-01-18T05:59:23.112Z,0
2019-01-18T06:00:33.362Z,0
2019-01-18T06:01:43.477Z,0
2019-01-18T06:02:53.596Z,0
2019-01-18T06:04:03.460Z,0
2019-01-18T06:05:13.589Z,0
2019-01-18T06:06:23.700Z,0
2019-01-18T06:07:33.798Z,0
2019-01-18T06:08:43.942Z,0
2019-01-18T06:09:54.058Z,0
2019-01-18T06:11:04.182Z,0
2019-01-18T06:12:14.313Z,0
2019-01-18T06:13:24.424Z,0
2019-01-18T06:14:34.581Z,0
2019-01-18T06:15:45.493Z,0
2019-01-18T06:16:55.606Z,0
2019-01-18T06:18:05.748Z,0
2019-01-18T06:19:15.953Z,0
2019-01-18T06:20:25.857Z,0
2019-01-18T06:21:35.969Z,0
2019-01-18T06:22:46.096Z,0
2019-01-18T06:23:56.208Z,0
2019-01-18T06:25:06.391Z,0
2019-01-18T06:26:16.499Z,0
2019-01-18T06:27:27.991Z,0
2019-01-18T06:28:38.118Z,0
2019-01-18T06:29:48.234Z,0
2019-01-18T06:31:04.213Z,0
2019-01-18T06:32:14.318Z,0
2019-01-18T06:33:24.436Z,0
2019-01-18T06:34:34.309Z,0
2019-01-18T06:35:44.440Z,0
2019-01-18T06:36:54.558Z,0
2019-01-18T06:38:04.662Z,0
2019-01-18T06:39:14.792Z,0
2019-01-18T06:40:24.900Z,0
2019-01-18T06:41:35.022Z,0
2019-01-18T06:42:45.127Z,0
2019-01-18T06:43:55.307Z,0
2019-01-18T06:45:05.482Z,0
2019-01-18T06:46:15.586Z,0
2019-01-18T06:47:25.694Z,0
2019-01-18T06:48:35.800Z,0
2019-01-18T06:49:45.910Z,0
2019-01-18T06:50:56.649Z,0
2019-01-18T06:52:06.763Z,0
2019-01-18T06:53:16.675Z,0
2019-01-18T06:54:26.801Z,0
2019-01-18T06:55:36.909Z,0
2019-01-18T06:56:46.767Z,0
2019-01-18T06:57:56.641Z,0
2019-01-18T06:59:06.756Z,0
2019-01-18T07:00:16.598Z,0
2019-01-18T07:01:26.452Z,0
2019-01-18T07:02:36.574Z,0
2019-01-18T07:03:46.427Z,0
2019-01-18T07:04:56.538Z,0
2019-01-18T07:06:06.879Z,0
2019-01-18T07:07:16.978Z,5
2019-01-18T07:08:28.171Z,5
2019-01-18T07:09:38.298Z,5
2019-01-18T07:10:48.384Z,5
2019-01-18T07:11:58.503Z,5
2019-01-18T07:13:08.617Z,5
2019-01-18T07:14:18.739Z,5
2019-01-18T07:15:28.829Z,5
2019-01-18T07:16:38.942Z,10
2019-01-18T07:17:49.074Z,10
2019-01-18T07:18:59.175Z,10
2019-01-18T07:20:09.060Z,10
2019-01-18T07:21:19.153Z,10
2019-01-18T07:22:29.273Z,15
2019-01-18T07:23:39.383Z,15
2019-01-18T07:24:49.484Z,15
2019-01-18T07:25:59.324Z,15
2019-01-18T07:27:09.486Z,15
2019-01-18T07:28:19.603Z,20
2019-01-18T07:29:29.700Z,20
2019-01-18T07:30:39.811Z,20
2019-01-18T07:31:49.935Z,20
2019-01-18T07:33:00.039Z,20
2019-01-18T07:34:10.172Z,25
2019-01-18T07:35:20.266Z,25
2019-01-18T07:36:30.381Z,25
2019-01-18T07:37:40.480Z,25
2019-01-18T07:38:50.595Z,30
2019-01-18T07:40:00.718Z,30
2019-01-18T07:41:10.873Z,30
2019-01-18T07:42:20.717Z,30
2019-01-18T07:43:30.829Z,30
2019-01-18T07:44:40.938Z,35
2019-01-18T07:45:51.055Z,35
2019-01-18T07:47:01.161Z,35
2019-01-18T07:48:11.262Z,35
2019-01-18T07:49:22.349Z,35
2019-01-18T07:50:32.233Z,40
2019-01-18T07:51:42.332Z,40
2019-01-18T07:52:52.436Z,40
2019-01-18T07:54:02.605Z,40
2019-01-18T07:55:12.448Z,45
2019-01-18T07:56:22.550Z,45
2019-01-18T07:57:32.668Z,45
2019-01-18T07:58:42.807Z,50
2019-01-18T07:59:52.966Z,50
2019-01-18T08:01:03.110Z,50
2019-01-18T08:02:12.976Z,50
2019-01-18T08:03:23.087Z,55
2019-01-18T08:04:33.219Z,55
2019-01-18T08:05:43.383Z,55
2019-01-18T08:06:53.536Z,55
2019-01-18T08:08:03.667Z,55
2019-01-18T08:09:14.757Z,60
2019-01-18T08:10:24.887Z,60
2019-01-18T08:11:35.000Z,60
2019-01-18T08:12:45.093Z,65
2019-01-18T08:13:55.205Z,65
2019-01-18T08:15:05.382Z,65
2019-01-18T08:16:15.529Z,65
2019-01-18T08:17:25.373Z,65
2019-01-18T08:18:35.510Z,70
2019-01-18T08:19:45.634Z,70
2019-01-18T08:20:55.772Z,70
2019-01-18T08:22:05.898Z,65
2019-01-18T08:23:15.798Z,70
2019-01-18T08:24:25.927Z,70
2019-01-18T08:25:36.035Z,75
2019-01-18T08:26:45.902Z,80
2019-01-18T08:27:56.029Z,80
2019-01-18T08:29:06.144Z,85
2019-01-18T08:30:16.009Z,90
2019-01-18T08:31:31.406Z,95
2019-01-18T08:32:41.516Z,95
2019-01-18T08:33:51.648Z,100
2019-01-18T08:35:01.755Z,100
2019-01-18T08:36:11.674Z,105
2019-01-18T08:37:21.795Z,105
2019-01-18T08:38:31.675Z,110
2019-01-18T08:39:41.798Z,120
2019-01-18T08:40:51.903Z,130
2019-01-18T08:42:01.752Z,145
2019-01-18T08:43:11.850Z,145
2019-01-18T08:44:21.947Z,145
2019-01-18T08:45:32.065Z,150
2019-01-18T08:46:42.180Z,160
2019-01-18T08:47:52.288Z,160
2019-01-18T08:49:03.682Z,170
2019-01-18T08:50:13.783Z,170
2019-01-18T08:51:23.881Z,175
2019-01-18T08:52:33.987Z,175
2019-01-18T08:53:44.088Z,175
2019-01-18T08:54:53.845Z,165
2019-01-18T08:56:03.950Z,195
2019-01-18T08:57:14.044Z,195
2019-01-18T08:58:24.179Z,185
2019-01-18T08:59:34.319Z,185
2019-01-18T09:00:44.430Z,190
2019-01-18T09:01:54.577Z,195
2019-01-18T09:03:04.417Z,195
2019-01-18T09:04:14.525Z,200
2019-01-18T09:05:24.644Z,205
2019-01-18T09:06:34.762Z,205
2019-01-18T09:07:44.603Z,205
2019-01-18T09:08:54.748Z,210
2019-01-18T09:10:04.938Z,215
2019-01-18T09:11:15.060Z,215
2019-01-18T09:12:25.173Z,225
2019-01-18T09:13:35.280Z,225
2019-01-18T09:14:45.385Z,230
2019-01-18T09:15:55.510Z,230
2019-01-18T09:17:05.779Z,235
2019-01-18T09:18:15.904Z,235
2019-01-18T09:19:26.025Z,235
2019-01-18T09:20:36.134Z,240
2019-01-18T09:21:46.254Z,235
2019-01-18T09:22:56.373Z,220
2019-01-18T09:24:06.479Z,200
2019-01-18T09:25:16.600Z,195
2019-01-18T09:26:26.709Z,185
2019-01-18T09:27:36.815Z,180
2019-01-18T09:28:46.943Z,175
2019-01-18T09:29:57.063Z,175
2019-01-18T09:31:07.194Z,175
2019-01-18T09:32:17.318Z,180
2019-01-18T09:33:27.179Z,195
2019-01-18T09:34:37.298Z,210
2019-01-18T09:35:47.410Z,225
2019-01-18T09:36:57.539Z,230
2019-01-18T09:38:07.679Z,235
2019-01-18T09:39:17.793Z,230
2019-01-18T09:40:27.897Z,230
2019-01-18T09:41:38.002Z,225
2019-01-18T09:42:48.119Z,210
2019-01-18T09:43:58.229Z,185
2019-01-18T09:45:08.377Z,175
2019-01-18T09:46:18.522Z,170
2019-01-18T09:47:28.686Z,175
2019-01-18T09:48:38.827Z,180
2019-01-18T09:49:50.076Z,185
2019-01-18T09:51:00.181Z,200
2019-01-18T09:52:10.318Z,210
2019-01-18T09:53:20.416Z,225
2019-01-18T09:54:30.554Z,240
2019-01-18T09:55:41.328Z,260
2019-01-18T09:56:51.451Z,285
2019-01-18T09:58:01.567Z,315
2019-01-18T09:59:11.692Z,380
2019-01-18T10:00:21.795Z,475
2019-01-18T10:01:31.652Z,575
2019-01-18T10:02:41.789Z,685
2019-01-18T10:03:51.913Z,775
2019-01-18T10:05:02.035Z,845
2019-01-18T10:06:12.170Z,870
2019-01-18T10:07:22.312Z,870
2019-01-18T10:08:32.439Z,870
2019-01-18T10:09:42.581Z,885
2019-01-18T10:10:52.710Z,885
2019-01-18T10:12:03.429Z,885
2019-01-18T10:13:16.821Z,895
2019-01-18T10:14:29.309Z,900
2019-01-18T10:15:41.498Z,905
2019-01-18T10:16:51.605Z,910
2019-01-18T10:18:07.519Z,915
2019-01-18T10:19:17.656Z,925
2019-01-18T10:20:27.783Z,925
2019-01-18T10:21:37.905Z,930
2019-01-18T10:22:48.024Z,930
2019-01-18T10:23:58.145Z,935
2019-01-18T10:25:08.262Z,940
2019-01-18T10:26:18.379Z,945
2019-01-18T10:27:32.983Z,945
2019-01-18T10:28:43.116Z,955
2019-01-18T10:29:52.981Z,960
2019-01-18T10:31:03.103Z,960
2019-01-18T10:32:13.234Z,970
2019-01-18T10:33:23.568Z,965
2019-01-18T10:34:33.694Z,970
2019-01-18T10:35:43.826Z,965
2019-01-18T10:36:54.884Z,965
2019-01-18T10:38:05.123Z,975
2019-01-18T10:39:15.242Z,990
2019-01-18T10:40:25.368Z,995
2019-01-18T10:41:35.706Z,985
2019-01-18T10:42:45.815Z,995
2019-01-18T10:43:55.944Z,995
2019-01-18T10:45:06.196Z,995
2019-01-18T10:46:16.322Z,995
2019-01-18T10:47:26.440Z,995
2019-01-18T10:49:50.323Z,995
2019-01-18T10:51:00.447Z,995
2019-01-18T10:52:10.577Z,1000
2019-01-18T10:53:20.700Z,1005
2019-01-18T10:54:31.061Z,1000
2019-01-18T10:55:41.168Z,1000
2019-01-18T10:56:51.307Z,1005
2019-01-18T10:58:02.673Z,1010
2019-01-18T10:59:12.792Z,1005
2019-01-18T11:00:22.896Z,1005
2019-01-18T11:01:34.005Z,1005
2019-01-18T11:02:44.209Z,1005
2019-01-18T11:03:54.336Z,1010
2019-01-18T11:06:19.011Z,1020
2019-01-18T11:07:28.886Z,1030
2019-01-18T11:08:39.015Z,1015
2019-01-18T11:09:49.166Z,1020
2019-01-18T11:10:59.056Z,1025
2019-01-18T11:12:09.167Z,1025
2019-01-18T11:13:19.307Z,1025
2019-01-18T11:14:29.425Z,1020
2019-01-18T11:15:43.291Z,1030
2019-01-18T11:16:53.420Z,1020
2019-01-18T11:18:03.558Z,1020
2019-01-18T11:19:13.756Z,1015
2019-01-18T11:20:23.634Z,1020
2019-01-18T11:21:33.769Z,1020
2019-01-18T11:22:43.951Z,1025
2019-01-18T11:23:54.080Z,1030
2019-01-18T11:25:04.220Z,1025
2019-01-18T11:26:14.334Z,1025
2019-01-18T11:27:24.466Z,1025
2019-01-18T11:28:34.602Z,1025
2019-01-18T11:29:44.730Z,1025
2019-01-18T11:30:54.837Z,1025
2019-01-18T11:32:04.955Z,1030
2019-01-18T11:33:15.100Z,1030
2019-01-18T11:34:25.267Z,1020
2019-01-18T11:35:35.384Z,1020
2019-01-18T11:36:45.522Z,1025
2019-01-18T11:37:56.621Z,1015
2019-01-18T11:39:06.731Z,1015
2019-01-18T11:40:16.591Z,1020
2019-01-18T11:41:26.717Z,1015
2019-01-18T11:42:36.483Z,1015
2019-01-18T11:43:46.615Z,1020
2019-01-18T11:44:56.757Z,1015
2019-01-18T11:46:06.891Z,1015
2019-01-18T11:47:17.021Z,1015
2019-01-18T11:48:27.156Z,1005
2019-01-18T11:49:37.032Z,1005
2019-01-18T11:50:47.151Z,995
2019-01-18T11:51:57.267Z,1000
2019-01-18T11:53:07.397Z,1005
2019-01-18T11:54:17.543Z,1005
2019-01-18T11:55:27.668Z,1000
2019-01-18T11:56:37.811Z,995
2019-01-18T11:57:47.677Z,980
2019-01-18T11:58:57.553Z,940
2019-01-18T12:00:07.462Z,890
2019-01-18T12:01:17.619Z,920
2019-01-18T12:02:31.814Z,930
2019-01-18T12:03:41.955Z,880
2019-01-18T12:04:52.114Z,755
2019-01-18T12:06:02.250Z,790
2019-01-18T12:07:12.134Z,935
2019-01-18T12:08:22.296Z,940
2019-01-18T12:09:32.449Z,955
2019-01-18T12:10:42.596Z,940
2019-01-18T12:11:52.711Z,935
2019-01-18T12:13:02.872Z,940
2019-01-18T12:14:13.013Z,950
2019-01-18T12:15:23.136Z,960
2019-01-18T12:16:33.263Z,965
2019-01-18T12:17:43.390Z,965
2019-01-18T12:18:53.543Z,965
2019-01-18T12:20:03.670Z,970
2019-01-18T12:21:13.538Z,955
2019-01-18T12:22:23.665Z,955
2019-01-18T12:23:33.445Z,945
2019-01-18T12:24:43.604Z,935
2019-01-18T12:25:53.766Z,930
2019-01-18T12:27:03.917Z,925
2019-01-18T12:28:14.061Z,915
2019-01-18T12:29:25.709Z,880
2019-01-18T12:30:35.852Z,805
2019-01-18T12:31:46.014Z,715
2019-01-18T12:32:56.168Z,620
2019-01-18T12:34:06.303Z,525
2019-01-18T12:35:16.436Z,435
2019-01-18T12:36:26.568Z,355
2019-01-18T12:37:36.454Z,310
2019-01-18T12:38:46.568Z,295
2019-01-18T12:39:56.710Z,270
2019-01-18T12:41:06.848Z,255
2019-01-18T12:42:16.994Z,245
2019-01-18T12:43:27.138Z,235
2019-01-18T12:44:37.272Z,225
2019-01-18T12:45:48.807Z,220
2019-01-18T12:46:58.937Z,205
2019-01-18T12:48:10.401Z,185
2019-01-18T12:49:20.142Z,170
2019-01-18T12:50:30.274Z,160
2019-01-18T12:51:40.139Z,145
2019-01-18T12:52:50.252Z,145
2019-01-18T12:54:00.385Z,145
2019-01-18T12:55:10.164Z,145
2019-01-18T12:56:20.299Z,145
2019-01-18T12:57:30.166Z,150
2019-01-18T12:58:40.285Z,150
2019-01-18T12:59:50.415Z,150
2019-01-18T13:01:00.539Z,150
2019-01-18T13:02:10.660Z,150
2019-01-18T13:03:20.795Z,145
2019-01-18T13:04:30.903Z,145
2019-01-18T13:05:41.057Z,140
2019-01-18T13:06:51.191Z,140
2019-01-18T13:08:01.315Z,140
2019-01-18T13:09:11.418Z,140
2019-01-18T13:10:22.170Z,135
2019-01-18T13:11:32.299Z,135
2019-01-18T13:12:42.457Z,135
2019-01-18T13:13:52.592Z,130
2019-01-18T13:15:06.965Z,130
2019-01-18T13:16:17.127Z,130
2019-01-18T13:17:27.268Z,130
2019-01-18T13:18:37.417Z,125
2019-01-18T13:19:47.610Z,120
2019-01-18T13:20:57.720Z,120
2019-01-18T13:22:07.865Z,115
2019-01-18T13:23:18.005Z,110
2019-01-18T13:24:28.137Z,110
2019-01-18T13:25:38.237Z,110
2019-01-18T13:26:48.085Z,110
2019-01-18T13:28:02.376Z,110
2019-01-18T13:29:12.508Z,110
2019-01-18T13:30:22.640Z,105
2019-01-18T13:31:32.777Z,105
2019-01-18T13:32:48.935Z,105
2019-01-18T13:34:02.982Z,100
2019-01-18T13:35:13.230Z,100
2019-01-18T13:36:23.377Z,100
2019-01-18T13:37:34.484Z,100
2019-01-18T13:38:44.649Z,100
2019-01-18T13:39:54.770Z,95
2019-01-18T13:41:04.894Z,95
2019-01-18T13:42:15.045Z,95
2019-01-18T13:43:25.211Z,95
2019-01-18T13:44:35.366Z,95
2019-01-18T13:45:45.494Z,90
2019-01-18T13:46:55.641Z,90
2019-01-18T13:48:05.436Z,90
2019-01-18T13:49:15.596Z,90
2019-01-18T13:50:25.711Z,90
2019-01-18T13:51:35.843Z,90
2019-01-18T13:52:45.727Z,85
2019-01-18T13:53:55.849Z,85
2019-01-18T13:55:05.976Z,85
2019-01-18T13:56:16.144Z,85
2019-01-18T13:57:26.368Z,85
2019-01-18T13:58:36.511Z,85
2019-01-18T13:59:46.631Z,80
2019-01-18T14:00:56.776Z,80
2019-01-18T14:02:06.898Z,80
2019-01-18T14:03:17.044Z,80
2019-01-18T14:04:27.269Z,80
2019-01-18T14:05:37.136Z,75
2019-01-18T14:06:47.292Z,75
2019-01-18T14:08:00.733Z,75
2019-01-18T14:09:10.862Z,75
2019-01-18T14:10:20.741Z,70
2019-01-18T14:11:30.860Z,70
2019-01-18T14:12:41.016Z,70
2019-01-18T14:13:51.234Z,70
2019-01-18T14:15:01.361Z,70
2019-01-18T14:16:11.497Z,70
2019-01-18T14:17:21.663Z,70
2019-01-18T14:18:31.836Z,70
2019-01-18T14:19:41.975Z,70
2019-01-18T14:20:52.124Z,65
2019-01-18T14:22:02.328Z,65
2019-01-18T14:23:12.210Z,70
2019-01-18T14:24:22.381Z,70
2019-01-18T14:25:32.521Z,70
2019-01-18T14:26:42.647Z,75
2019-01-18T14:27:52.790Z,75
2019-01-18T14:29:02.940Z,70
2019-01-18T14:30:13.050Z,70
2019-01-18T14:31:24.174Z,65
2019-01-18T14:32:34.330Z,60
2019-01-18T14:33:44.576Z,60
2019-01-18T14:34:54.738Z,60
2019-01-18T14:36:04.879Z,60
2019-01-18T14:37:15.034Z,55
2019-01-18T14:38:29.947Z,60
2019-01-18T14:39:39.736Z,55
2019-01-18T14:40:49.867Z,55
2019-01-18T14:42:00.046Z,55
2019-01-18T14:43:10.200Z,60
2019-01-18T14:44:20.335Z,50
2019-01-18T14:45:30.207Z,50
2019-01-18T14:46:40.346Z,55
2019-01-18T14:47:50.506Z,50
2019-01-18T14:49:00.667Z,50
2019-01-18T14:50:10.785Z,50
2019-01-18T14:51:20.971Z,45
2019-01-18T14:52:30.864Z,45
2019-01-18T14:53:40.996Z,45
2019-01-18T14:54:51.165Z,45
2019-01-18T14:56:01.323Z,45
2019-01-18T14:57:11.672Z,45
2019-01-18T14:58:24.594Z,45
2019-01-18T14:59:34.817Z,45
2019-01-18T15:00:44.986Z,40
2019-01-18T15:01:54.854Z,40
2019-01-18T15:03:12.051Z,40
2019-01-18T15:04:22.238Z,40
2019-01-18T15:05:32.395Z,35
2019-01-18T15:06:42.559Z,35
2019-01-18T15:07:52.709Z,35
2019-01-18T15:09:02.875Z,35
2019-01-18T15:10:14.604Z,30
2019-01-18T15:11:24.740Z,30
2019-01-18T15:12:34.884Z,30
2019-01-18T15:13:45.023Z,30
2019-01-18T15:14:55.156Z,25
2019-01-18T15:16:05.068Z,25
2019-01-18T15:17:15.220Z,25
2019-01-18T15:18:25.363Z,25
2019-01-18T15:19:35.542Z,20
2019-01-18T15:20:45.704Z,20
2019-01-18T15:21:55.873Z,20
2019-01-18T15:23:06.032Z,20
2019-01-18T15:24:16.244Z,15
2019-01-18T15:25:26.420Z,15
2019-01-18T15:26:36.581Z,15
2019-01-18T15:27:46.722Z,15
2019-01-18T15:28:56.966Z,10
2019-01-18T15:30:11.712Z,10
2019-01-18T15:31:21.825Z,10
2019-01-18T15:32:32.006Z,10
2019-01-18T15:33:42.222Z,5
2019-01-18T15:34:52.389Z,5
2019-01-18T15:36:02.529Z,5
2019-01-18T15:37:12.704Z,5
2019-01-18T15:38:22.844Z,5
2019-01-18T15:39:32.984Z,5
2019-01-18T15:40:43.141Z,5
2019-01-18T15:41:53.311Z,5
2019-01-18T15:43:03.447Z,0
2019-01-18T15:44:13.607Z,0
2019-01-18T15:45:23.754Z,0
2019-01-18T15:46:33.926Z,0
2019-01-18T15:47:44.284Z,0
2019-01-18T15:48:54.164Z,0
2019-01-18T15:50:04.556Z,0
2019-01-18T15:51:14.710Z,0
2019-01-18T15:52:24.837Z,0
2019-01-18T15:53:34.968Z,0
2019-01-18T15:54:45.131Z,0
2019-01-18T15:55:55.301Z,0
2019-01-18T15:57:05.494Z,0
2019-01-18T15:58:15.244Z,0
2019-01-18T15:59:25.147Z,0
2019-01-18T16:00:35.299Z,0
2019-01-18T16:01:45.452Z,0
2019-01-18T16:02:55.618Z,0
2019-01-18T16:04:05.795Z,0
2019-01-18T16:05:16.271Z,0
2019-01-18T16:06:26.469Z,0
2019-01-18T16:07:36.635Z,0
2019-01-18T16:08:46.772Z,0
2019-01-18T16:09:56.940Z,0
2019-01-18T16:11:07.107Z,0
2019-01-18T16:12:17.294Z,0
2019-01-18T16:13:27.481Z,0
2019-01-18T16:14:37.645Z,0
2019-01-18T16:15:47.819Z,0
2019-01-18T16:16:57.978Z,0
2019-01-18T16:18:08.132Z,0
2019-01-18T16:19:18.275Z,0
2019-01-18T16:20:28.429Z,0
2019-01-18T16:21:38.561Z,0
2019-01-18T16:22:48.751Z,0
2019-01-18T16:23:58.930Z,0
2019-01-18T16:25:08.833Z,0
2019-01-18T16:26:19.005Z,0
2019-01-18T16:27:29.128Z,0
2019-01-18T16:28:39.278Z,0
2019-01-18T16:29:49.451Z,0
2019-01-18T16:30:59.628Z,0
2019-01-18T16:32:09.786Z,0
2019-01-18T16:33:25.922Z,0
2019-01-18T16:34:36.067Z,0
2019-01-18T16:35:46.239Z,0
2019-01-18T16:36:57.360Z,0
2019-01-18T16:38:07.496Z,0
2019-01-18T16:39:17.670Z,0
2019-01-18T16:40:27.816Z,0
2019-01-18T16:41:37.994Z,0
2019-01-18T16:42:48.155Z,0
2019-01-18T16:43:58.302Z,0
2019-01-18T16:45:08.465Z,0
2019-01-18T16:46:18.623Z,0
2019-01-18T16:47:28.763Z,0
2019-01-18T16:48:38.938Z,0
2019-01-18T16:49:49.112Z,0